sensor_id;sensor_type;location;lat;lon;timestamp;pressure;altitude;pressure_sealevel;temperature;humidity
11223;BME280;5668;52.012;8.724;2022-09-09T00:01:49;99471.50;;;18.89;75.35
11223;BME280;5668;52.012;8.724;2022-09-09T00:04:26;99469.03;;;18.87;75.37
11223;BME280;5668;52.012;8.724;2022-09-09T00:07:00;99469.84;;;18.88;75.63
11223;BME280;5668;52.012;8.724;2022-09-09T00:09:34;99464.06;;;18.92;75.01
11223;BME280;5668;52.012;8.724;2022-09-09T00:12:11;99466.88;;;18.91;75.28
11223;BME280;5668;52.012;8.724;2022-09-09T00:14:48;99468.41;;;18.85;75.54
11223;BME280;5668;52.012;8.724;2022-09-09T00:17:26;99463.41;;;18.90;75.30
11223;BME280;5668;52.012;8.724;2022-09-09T00:20:02;99465.06;;;18.91;75.76
11223;BME280;5668;52.012;8.724;2022-09-09T00:22:38;99460.59;;;18.92;75.54
11223;BME280;5668;52.012;8.724;2022-09-09T00:25:12;99457.81;;;18.93;75.56
11223;BME280;5668;52.012;8.724;2022-09-09T00:27:46;99467.31;;;18.94;75.61
11223;BME280;5668;52.012;8.724;2022-09-09T00:30:16;99465.50;;;18.95;75.64
11223;BME280;5668;52.012;8.724;2022-09-09T00:32:46;99465.50;;;18.95;75.64
11223;BME280;5668;52.012;8.724;2022-09-09T00:35:18;99463.69;;;18.95;75.82
11223;BME280;5668;52.012;8.724;2022-09-09T00:37:50;99463.34;;;18.99;75.68
11223;BME280;5668;52.012;8.724;2022-09-09T00:40:24;99462.34;;;19.00;75.35
11223;BME280;5668;52.012;8.724;2022-09-09T00:46:05;99462.88;;;18.95;75.85
11223;BME280;5668;52.012;8.724;2022-09-09T00:48:39;99467.13;;;18.96;76.19
11223;BME280;5668;52.012;8.724;2022-09-09T00:51:17;99471.06;;;19.00;76.08
11223;BME280;5668;52.012;8.724;2022-09-09T00:54:02;99467.22;;;19.03;75.82
11223;BME280;5668;52.012;8.724;2022-09-09T00:56:37;99472.50;;;19.03;76.11
11223;BME280;5668;52.012;8.724;2022-09-09T00:59:21;99455.69;;;19.04;75.32
11223;BME280;5668;52.012;8.724;2022-09-09T01:01:52;99463.59;;;19.04;75.92
11223;BME280;5668;52.012;8.724;2022-09-09T01:04:27;99456.69;;;19.03;75.64
11223;BME280;5668;52.012;8.724;2022-09-09T01:07:03;99459.31;;;19.03;76.07
11223;BME280;5668;52.012;8.724;2022-09-09T01:09:38;99460.53;;;19.00;76.23
11223;BME280;5668;52.012;8.724;2022-09-09T01:12:14;99458.06;;;18.99;76.11
11223;BME280;5668;52.012;8.724;2022-09-09T01:14:47;99454.44;;;19.00;76.51
11223;BME280;5668;52.012;8.724;2022-09-09T01:17:19;99464.16;;;18.99;76.53
11223;BME280;5668;52.012;8.724;2022-09-09T01:19:59;99459.69;;;19.00;76.13
11223;BME280;5668;52.012;8.724;2022-09-09T01:22:35;99462.88;;;18.95;76.05
11223;BME280;5668;52.012;8.724;2022-09-09T01:25:22;99470.59;;;18.97;76.01
11223;BME280;5668;52.012;8.724;2022-09-09T01:27:57;99468.59;;;18.99;76.50
11223;BME280;5668;52.012;8.724;2022-09-09T01:30:26;99471.88;;;19.01;75.88
11223;BME280;5668;52.012;8.724;2022-09-09T01:32:56;99468.78;;;18.97;76.63
11223;BME280;5668;52.012;8.724;2022-09-09T01:35:36;99470.59;;;18.97;76.79
11223;BME280;5668;52.012;8.724;2022-09-09T01:38:06;99476.31;;;19.00;76.47
11223;BME280;5668;52.012;8.724;2022-09-09T01:40:34;99475.50;;;19.00;76.59
11223;BME280;5668;52.012;8.724;2022-09-09T01:43:03;99471.88;;;19.01;76.64
11223;BME280;5668;52.012;8.724;2022-09-09T01:45:31;99477.31;;;18.99;76.62
11223;BME280;5668;52.012;8.724;2022-09-09T01:47:58;99467.78;;;18.98;76.65
11223;BME280;5668;52.012;8.724;2022-09-09T01:50:26;99462.03;;;18.94;76.78
11223;BME280;5668;52.012;8.724;2022-09-09T01:52:56;99469.31;;;18.92;76.81
11223;BME280;5668;52.012;8.724;2022-09-09T01:55:29;99464.41;;;18.89;77.01
11223;BME280;5668;52.012;8.724;2022-09-09T01:58:04;99472.97;;;18.91;77.34
11223;BME280;5668;52.012;8.724;2022-09-09T02:00:38;99471.31;;;18.90;77.20
11223;BME280;5668;52.012;8.724;2022-09-09T02:03:18;99472.78;;;18.93;76.99
11223;BME280;5668;52.012;8.724;2022-09-09T02:05:55;99470.16;;;18.93;76.52
11223;BME280;5668;52.012;8.724;2022-09-09T02:08:33;99470.16;;;18.93;76.79
11223;BME280;5668;52.012;8.724;2022-09-09T02:11:07;99467.94;;;18.97;75.73
11223;BME280;5668;52.012;8.724;2022-09-09T02:13:38;99468.94;;;18.95;76.23
11223;BME280;5668;52.012;8.724;2022-09-09T02:16:08;99461.69;;;18.98;75.71
11223;BME280;5668;52.012;8.724;2022-09-09T02:18:40;99465.31;;;18.97;75.93
11223;BME280;5668;52.012;8.724;2022-09-09T02:21:11;99469.03;;;19.02;75.85
11223;BME280;5668;52.012;8.724;2022-09-09T02:23:41;99462.59;;;19.05;75.48
11223;BME280;5668;52.012;8.724;2022-09-09T02:26:11;99469.50;;;19.06;75.36
11223;BME280;5668;52.012;8.724;2022-09-09T02:28:47;99473.78;;;19.07;75.25
11223;BME280;5668;52.012;8.724;2022-09-09T02:31:17;99475.22;;;19.24;74.93
11223;BME280;5668;52.012;8.724;2022-09-09T02:33:50;99472.94;;;19.21;74.73
11223;BME280;5668;52.012;8.724;2022-09-09T02:36:19;99478.22;;;19.21;74.87
11223;BME280;5668;52.012;8.724;2022-09-09T02:38:50;99479.22;;;19.20;74.58
11223;BME280;5668;52.012;8.724;2022-09-09T02:41:23;99473.31;;;19.18;74.68
11223;BME280;5668;52.012;8.724;2022-09-09T02:43:52;99482.13;;;19.10;75.09
11223;BME280;5668;52.012;8.724;2022-09-09T02:46:32;99482.13;;;19.10;75.04
11223;BME280;5668;52.012;8.724;2022-09-09T02:49:06;99470.53;;;19.55;73.47
11223;BME280;5668;52.012;8.724;2022-09-09T02:51:40;99468.28;;;19.38;74.10
11223;BME280;5668;52.012;8.724;2022-09-09T02:54:18;99473.84;;;19.28;74.38
11223;BME280;5668;52.012;8.724;2022-09-09T02:56:52;99484.38;;;19.28;74.41
11223;BME280;5668;52.012;8.724;2022-09-09T02:59:21;99476.22;;;19.23;74.71
11223;BME280;5668;52.012;8.724;2022-09-09T03:01:49;99494.03;;;19.21;74.78
11223;BME280;5668;52.012;8.724;2022-09-09T03:04:17;99476.56;;;19.20;74.85
11223;BME280;5668;52.012;8.724;2022-09-09T03:06:44;99474.59;;;19.22;74.70
11223;BME280;5668;52.012;8.724;2022-09-09T03:09:11;99485.47;;;19.19;74.66
11223;BME280;5668;52.012;8.724;2022-09-09T03:11:38;99494.38;;;19.18;74.95
11223;BME280;5668;52.012;8.724;2022-09-09T03:14:06;99493.56;;;19.17;75.14
11223;BME280;5668;52.012;8.724;2022-09-09T03:16:35;99485.38;;;19.12;75.32
11223;BME280;5668;52.012;8.724;2022-09-09T03:19:03;99491.47;;;19.13;75.73
11223;BME280;5668;52.012;8.724;2022-09-09T03:21:30;99489.03;;;19.11;76.10
11223;BME280;5668;52.012;8.724;2022-09-09T03:23:58;99490.22;;;19.09;76.36
11223;BME280;5668;52.012;8.724;2022-09-09T03:26:25;99491.81;;;19.10;76.20
11223;BME280;5668;52.012;8.724;2022-09-09T03:28:52;99490.41;;;19.07;76.27
11223;BME280;5668;52.012;8.724;2022-09-09T03:31:20;99487.28;;;19.04;76.79
11223;BME280;5668;52.012;8.724;2022-09-09T03:33:48;99485.03;;;19.01;76.90
11223;BME280;5668;52.012;8.724;2022-09-09T03:36:16;99486.84;;;19.00;76.58
11223;BME280;5668;52.012;8.724;2022-09-09T03:38:43;99488.84;;;18.98;76.94
11223;BME280;5668;52.012;8.724;2022-09-09T03:41:10;99485.41;;;18.98;77.42
11223;BME280;5668;52.012;8.724;2022-09-09T03:43:38;99491.31;;;19.00;77.23
11223;BME280;5668;52.012;8.724;2022-09-09T03:46:05;99484.84;;;19.02;76.85
11223;BME280;5668;52.012;8.724;2022-09-09T03:48:33;99483.22;;;19.01;76.90
11223;BME280;5668;52.012;8.724;2022-09-09T03:51:01;99477.50;;;18.98;76.77
11223;BME280;5668;52.012;8.724;2022-09-09T03:53:30;99476.84;;;18.95;77.20
11223;BME280;5668;52.012;8.724;2022-09-09T03:55:58;99477.50;;;18.98;77.28
11223;BME280;5668;52.012;8.724;2022-09-09T03:58:27;99473.69;;;19.00;76.99
11223;BME280;5668;52.012;8.724;2022-09-09T04:00:58;99471.50;;;19.04;76.59
11223;BME280;5668;52.012;8.724;2022-09-09T04:03:26;99476.59;;;19.05;76.69
11223;BME280;5668;52.012;8.724;2022-09-09T04:05:55;99471.13;;;19.07;76.73
11223;BME280;5668;52.012;8.724;2022-09-09T04:08:25;99469.84;;;19.03;76.47
11223;BME280;5668;52.012;8.724;2022-09-09T04:10:53;99466.59;;;19.01;76.61
11223;BME280;5668;52.012;8.724;2022-09-09T04:13:24;99469.41;;;18.99;76.83
11223;BME280;5668;52.012;8.724;2022-09-09T04:15:53;99473.03;;;18.98;77.02
11223;BME280;5668;52.012;8.724;2022-09-09T04:18:21;99467.78;;;18.98;77.13
11223;BME280;5668;52.012;8.724;2022-09-09T04:20:50;99471.59;;;18.95;77.41
11223;BME280;5668;52.012;8.724;2022-09-09T04:23:19;99478.88;;;18.93;77.65
11223;BME280;5668;52.012;8.724;2022-09-09T04:25:49;99486.56;;;18.95;77.76
11223;BME280;5668;52.012;8.724;2022-09-09T04:28:18;99479.88;;;18.92;78.13
11223;BME280;5668;52.012;8.724;2022-09-09T04:30:46;99482.13;;;18.95;78.10
11223;BME280;5668;52.012;8.724;2022-09-09T04:33:14;99490.00;;;18.95;78.39
11223;BME280;5668;52.012;8.724;2022-09-09T04:35:45;99483.50;;;18.91;78.39
11223;BME280;5668;52.012;8.724;2022-09-09T04:38:14;99488.38;;;18.94;78.44
11223;BME280;5668;52.012;8.724;2022-09-09T04:40:42;99492.84;;;18.94;78.08
11223;BME280;5668;52.012;8.724;2022-09-09T04:43:11;99489.75;;;18.90;78.80
11223;BME280;5668;52.012;8.724;2022-09-09T04:45:41;99487.47;;;18.87;79.10
11223;BME280;5668;52.012;8.724;2022-09-09T04:48:10;99499.63;;;18.88;79.55
11223;BME280;5668;52.012;8.724;2022-09-09T04:50:39;99500.09;;;18.92;79.77
11223;BME280;5668;52.012;8.724;2022-09-09T04:53:07;99496.66;;;18.91;80.22
11223;BME280;5668;52.012;8.724;2022-09-09T04:55:35;99489.75;;;18.90;80.53
11223;BME280;5668;52.012;8.724;2022-09-09T04:58:07;99498.47;;;18.91;81.14
11223;BME280;5668;52.012;8.724;2022-09-09T05:00:36;99501.75;;;18.93;81.52
11223;BME280;5668;52.012;8.724;2022-09-09T05:03:04;99500.75;;;18.94;81.40
11223;BME280;5668;52.012;8.724;2022-09-09T05:05:32;99495.94;;;18.98;80.89
11223;BME280;5668;52.012;8.724;2022-09-09T05:08:04;99496.91;;;18.97;80.91
11223;BME280;5668;52.012;8.724;2022-09-09T05:10:32;99503.81;;;18.98;81.09
11223;BME280;5668;52.012;8.724;2022-09-09T05:12:59;99504.31;;;19.01;80.94
11223;BME280;5668;52.012;8.724;2022-09-09T05:15:26;99506.72;;;19.03;81.08
11223;BME280;5668;52.012;8.724;2022-09-09T05:17:57;99501.09;;;19.06;81.11
11223;BME280;5668;52.012;8.724;2022-09-09T05:20:25;99511.66;;;19.06;80.97
11223;BME280;5668;52.012;8.724;2022-09-09T05:22:53;99510.47;;;19.08;80.80
11223;BME280;5668;52.012;8.724;2022-09-09T05:25:20;99507.94;;;19.15;80.22
11223;BME280;5668;52.012;8.724;2022-09-09T05:27:48;99503.66;;;19.14;80.02
11223;BME280;5668;52.012;8.724;2022-09-09T05:30:16;99501.19;;;19.12;80.07
11223;BME280;5668;52.012;8.724;2022-09-09T05:32:44;99504.56;;;19.06;80.27
11223;BME280;5668;52.012;8.724;2022-09-09T05:35:15;99498.47;;;19.06;80.67
11223;BME280;5668;52.012;8.724;2022-09-09T05:37:44;99503.47;;;19.01;80.79
11223;BME280;5668;52.012;8.724;2022-09-09T05:40:13;99493.75;;;19.01;81.01
11223;BME280;5668;52.012;8.724;2022-09-09T05:42:42;99501.66;;;19.01;81.31
11223;BME280;5668;52.012;8.724;2022-09-09T05:45:10;99505.91;;;19.02;80.78
11223;BME280;5668;52.012;8.724;2022-09-09T05:47:37;99504.31;;;19.01;81.21
11223;BME280;5668;52.012;8.724;2022-09-09T05:50:06;99497.75;;;18.97;82.00
11223;BME280;5668;52.012;8.724;2022-09-09T05:52:35;99507.63;;;18.95;82.14
11223;BME280;5668;52.012;8.724;2022-09-09T05:55:03;99498.91;;;18.94;82.44
11223;BME280;5668;52.012;8.724;2022-09-09T05:57:30;99496.09;;;18.96;82.59
11223;BME280;5668;52.012;8.724;2022-09-09T05:59:58;99501.53;;;18.94;83.17
11223;BME280;5668;52.012;8.724;2022-09-09T06:02:25;99503.47;;;19.01;83.27
11223;BME280;5668;52.012;8.724;2022-09-09T06:04:52;99507.75;;;19.02;83.08
11223;BME280;5668;52.012;8.724;2022-09-09T06:07:20;99502.75;;;19.07;82.80
11223;BME280;5668;52.012;8.724;2022-09-09T06:09:49;99507.03;;;19.08;83.05
11223;BME280;5668;52.012;8.724;2022-09-09T06:12:17;99504.22;;;19.09;82.94
11223;BME280;5668;52.012;8.724;2022-09-09T06:14:44;99508.91;;;19.14;82.96
11223;BME280;5668;52.012;8.724;2022-09-09T06:17:12;99509.19;;;19.19;82.29
11223;BME280;5668;52.012;8.724;2022-09-09T06:19:39;99504.22;;;19.24;82.01
11223;BME280;5668;52.012;8.724;2022-09-09T06:22:06;99505.03;;;19.24;81.68
11223;BME280;5668;52.012;8.724;2022-09-09T06:24:33;99503.19;;;19.25;82.13
11223;BME280;5668;52.012;8.724;2022-09-09T06:27:02;99498.56;;;19.27;82.06
11223;BME280;5668;52.012;8.724;2022-09-09T06:29:30;99502.81;;;19.28;82.18
11223;BME280;5668;52.012;8.724;2022-09-09T06:31:57;99501.47;;;19.32;82.33
11223;BME280;5668;52.012;8.724;2022-09-09T06:34:24;99503.72;;;19.35;81.93
11223;BME280;5668;52.012;8.724;2022-09-09T06:36:51;99504.38;;;19.37;81.69
11223;BME280;5668;52.012;8.724;2022-09-09T06:39:19;99511.28;;;19.38;81.59
11223;BME280;5668;52.012;8.724;2022-09-09T06:41:47;99519.81;;;19.40;81.44
11223;BME280;5668;52.012;8.724;2022-09-09T06:44:15;99514.16;;;19.43;81.38
11223;BME280;5668;52.012;8.724;2022-09-09T06:46:43;99516.28;;;19.48;80.86
11223;BME280;5668;52.012;8.724;2022-09-09T06:49:13;99516.09;;;19.49;81.09
11223;BME280;5668;52.012;8.724;2022-09-09T06:51:41;99510.66;;;19.51;80.68
11223;BME280;5668;52.012;8.724;2022-09-09T06:54:08;99506.03;;;19.53;80.90
11223;BME280;5668;52.012;8.724;2022-09-09T06:56:37;99513.94;;;19.53;80.97
11223;BME280;5668;52.012;8.724;2022-09-09T06:59:07;99510.28;;;19.54;80.59
11223;BME280;5668;52.012;8.724;2022-09-09T07:01:37;99520.84;;;19.54;80.64
11223;BME280;5668;52.012;8.724;2022-09-09T07:04:06;99519.03;;;19.54;80.51
11223;BME280;5668;52.012;8.724;2022-09-09T07:06:36;99518.00;;;19.55;80.53
11223;BME280;5668;52.012;8.724;2022-09-09T07:09:06;99519.63;;;19.56;80.64
11223;BME280;5668;52.012;8.724;2022-09-09T07:11:37;99522.91;;;19.58;80.54
11223;BME280;5668;52.012;8.724;2022-09-09T07:14:04;99534.28;;;19.59;80.41
11223;BME280;5668;52.012;8.724;2022-09-09T07:16:31;99528.81;;;19.60;80.48
11223;BME280;5668;52.012;8.724;2022-09-09T07:19:00;99532.28;;;19.61;79.71
11223;BME280;5668;52.012;8.724;2022-09-09T07:21:30;99538.97;;;19.63;79.62
11223;BME280;5668;52.012;8.724;2022-09-09T07:23:58;99533.09;;;19.61;79.91
11223;BME280;5668;52.012;8.724;2022-09-09T07:26:27;99532.28;;;19.61;80.00
11223;BME280;5668;52.012;8.724;2022-09-09T07:28:55;99528.66;;;19.62;79.76
11223;BME280;5668;52.012;8.724;2022-09-09T07:31:25;99539.97;;;19.62;80.05
11223;BME280;5668;52.012;8.724;2022-09-09T07:33:52;99539.19;;;19.62;79.50
11223;BME280;5668;52.012;8.724;2022-09-09T07:36:23;99530.63;;;19.60;80.00
11223;BME280;5668;52.012;8.724;2022-09-09T07:38:53;99535.75;;;19.61;79.96
11223;BME280;5668;52.012;8.724;2022-09-09T07:41:23;99538.97;;;19.63;80.08
11223;BME280;5668;52.012;8.724;2022-09-09T07:43:51;99535.53;;;19.63;80.31
11223;BME280;5668;52.012;8.724;2022-09-09T07:46:23;99537.16;;;19.64;80.51
11223;BME280;5668;52.012;8.724;2022-09-09T07:48:54;99529.06;;;19.65;80.14
11223;BME280;5668;52.012;8.724;2022-09-09T07:51:26;99538.00;;;19.64;80.47
11223;BME280;5668;52.012;8.724;2022-09-09T07:53:55;99537.34;;;19.62;80.29
11223;BME280;5668;52.012;8.724;2022-09-09T07:56:24;99538.00;;;19.64;80.67
11223;BME280;5668;52.012;8.724;2022-09-09T07:58:53;99525.44;;;19.66;80.60
11223;BME280;5668;52.012;8.724;2022-09-09T08:01:26;99528.72;;;19.68;80.82
11223;BME280;5668;52.012;8.724;2022-09-09T08:03:55;99529.16;;;19.72;80.83
11223;BME280;5668;52.012;8.724;2022-09-09T08:06:26;99520.06;;;19.75;80.59
11223;BME280;5668;52.012;8.724;2022-09-09T08:08:54;99516.25;;;19.77;80.49
11223;BME280;5668;52.012;8.724;2022-09-09T08:11:25;99520.78;;;19.83;80.56
11223;BME280;5668;52.012;8.724;2022-09-09T08:13:54;99515.94;;;19.87;80.69
11223;BME280;5668;52.012;8.724;2022-09-09T08:16:23;99512.75;;;19.91;80.81
11223;BME280;5668;52.012;8.724;2022-09-09T08:18:51;99511.00;;;19.98;80.75
11223;BME280;5668;52.012;8.724;2022-09-09T08:21:21;99515.69;;;20.03;80.59
11223;BME280;5668;52.012;8.724;2022-09-09T08:23:52;99511.88;;;20.05;80.79
11223;BME280;5668;52.012;8.724;2022-09-09T08:26:20;99512.38;;;20.16;80.74
11223;BME280;5668;52.012;8.724;2022-09-09T08:28:50;99511.25;;;20.25;80.52
11223;BME280;5668;52.012;8.724;2022-09-09T08:31:19;99515.56;;;20.32;80.46
11223;BME280;5668;52.012;8.724;2022-09-09T08:33:47;99519.75;;;20.41;80.60
11223;BME280;5668;52.012;8.724;2022-09-09T08:36:16;99522.25;;;20.50;78.87
11223;BME280;5668;52.012;8.724;2022-09-09T08:38:47;99521.50;;;20.56;76.86
11223;BME280;5668;52.012;8.724;2022-09-09T08:41:33;99519.09;;;20.61;76.08
11223;BME280;5668;52.012;8.724;2022-09-09T08:44:06;99520.59;;;20.70;76.32
11223;BME280;5668;52.012;8.724;2022-09-09T08:46:42;99522.09;;;20.79;76.33
11223;BME280;5668;52.012;8.724;2022-09-09T08:49:22;99519.31;;;20.87;76.40
11223;BME280;5668;52.012;8.724;2022-09-09T08:51:54;99523.84;;;21.00;77.47
11223;BME280;5668;52.012;8.724;2022-09-09T08:54:23;99532.88;;;21.12;77.07
11223;BME280;5668;52.012;8.724;2022-09-09T08:56:58;99533.56;;;21.20;75.64
11223;BME280;5668;52.012;8.724;2022-09-09T08:59:25;99531.75;;;21.28;74.38
11223;BME280;5668;52.012;8.724;2022-09-09T09:02:00;99534.22;;;21.29;73.65
11223;BME280;5668;52.012;8.724;2022-09-09T09:04:40;99541.16;;;21.37;73.32
11223;BME280;5668;52.012;8.724;2022-09-09T09:07:18;99541.81;;;21.45;72.94
11223;BME280;5668;52.012;8.724;2022-09-09T09:09:57;99540.00;;;21.46;72.15
11223;BME280;5668;52.012;8.724;2022-09-09T09:12:29;99537.97;;;21.48;70.90
11223;BME280;5668;52.012;8.724;2022-09-09T09:15:00;99543.09;;;21.49;70.17
11223;BME280;5668;52.012;8.724;2022-09-09T09:17:29;99540.03;;;21.52;69.83
11223;BME280;5668;52.012;8.724;2022-09-09T09:19:59;99538.81;;;21.55;70.27
11223;BME280;5668;52.012;8.724;2022-09-09T09:22:30;99539.66;;;21.62;70.67
11223;BME280;5668;52.012;8.724;2022-09-09T09:25:05;99532.78;;;21.74;71.16
11223;BME280;5668;52.012;8.724;2022-09-09T09:27:43;99531.22;;;21.86;70.16
11223;BME280;5668;52.012;8.724;2022-09-09T09:30:15;99530.81;;;21.89;69.50
11223;BME280;5668;52.012;8.724;2022-09-09T09:32:51;99529.66;;;21.98;68.75
11223;BME280;5668;52.012;8.724;2022-09-09T09:35:19;99529.25;;;22.02;69.01
11223;BME280;5668;52.012;8.724;2022-09-09T09:37:48;99527.25;;;22.10;68.11
11223;BME280;5668;52.012;8.724;2022-09-09T09:40:17;99523.16;;;22.14;68.02
11223;BME280;5668;52.012;8.724;2022-09-09T09:42:52;99521.53;;;22.13;66.96
11223;BME280;5668;52.012;8.724;2022-09-09T09:45:28;99528.66;;;22.13;66.09
11223;BME280;5668;52.012;8.724;2022-09-09T09:48:02;99530.91;;;22.16;65.62
11223;BME280;5668;52.012;8.724;2022-09-09T09:50:31;99523.97;;;22.15;65.30
11223;BME280;5668;52.012;8.724;2022-09-09T09:53:00;99534.56;;;22.15;65.23
11223;BME280;5668;52.012;8.724;2022-09-09T09:55:31;99532.94;;;22.14;65.85
11223;BME280;5668;52.012;8.724;2022-09-09T09:58:06;99542.31;;;22.10;65.26
11223;BME280;5668;52.012;8.724;2022-09-09T10:00:34;99542.69;;;22.07;64.35
11223;BME280;5668;52.012;8.724;2022-09-09T10:03:02;99543.50;;;22.00;63.47
11223;BME280;5668;52.012;8.724;2022-09-09T10:05:45;99544.28;;;21.94;64.31
11223;BME280;5668;52.012;8.724;2022-09-09T10:08:14;99545.03;;;21.88;63.96
11223;BME280;5668;52.012;8.724;2022-09-09T10:10:53;99551.38;;;21.87;63.63
11223;BME280;5668;52.012;8.724;2022-09-09T10:13:28;99549.91;;;21.78;63.62
11223;BME280;5668;52.012;8.724;2022-09-09T10:16:08;99547.00;;;21.67;63.48
11223;BME280;5668;52.012;8.724;2022-09-09T10:18:49;99541.06;;;21.58;64.79
11223;BME280;5668;52.012;8.724;2022-09-09T10:21:42;99532.75;;;21.61;65.51
11223;BME280;5668;52.012;8.724;2022-09-09T10:24:30;99537.25;;;21.67;66.12
11223;BME280;5668;52.012;8.724;2022-09-09T10:27:10;99529.31;;;21.74;67.26
11223;BME280;5668;52.012;8.724;2022-09-09T10:30:08;99516.97;;;21.87;68.23
11223;BME280;5668;52.012;8.724;2022-09-09T10:32:41;99523.34;;;21.99;66.22
11223;BME280;5668;52.012;8.724;2022-09-09T10:35:24;99521.94;;;22.10;65.58
11223;BME280;5668;52.012;8.724;2022-09-09T10:38:14;99526.44;;;22.23;65.46
11223;BME280;5668;52.012;8.724;2022-09-09T10:40:58;99510.75;;;22.34;62.60
11223;BME280;5668;52.012;8.724;2022-09-09T10:43:42;99515.47;;;22.52;63.27
11223;BME280;5668;52.012;8.724;2022-09-09T10:46:22;99521.19;;;22.62;62.88
11223;BME280;5668;52.012;8.724;2022-09-09T10:49:09;99530.16;;;22.74;62.15
11223;BME280;5668;52.012;8.724;2022-09-09T10:51:44;99525.88;;;22.80;60.37
11223;BME280;5668;52.012;8.724;2022-09-09T10:54:28;99519.53;;;22.88;60.36
11223;BME280;5668;52.012;8.724;2022-09-09T10:57:03;99524.63;;;22.96;60.59
11223;BME280;5668;52.012;8.724;2022-09-09T10:59:35;99522.38;;;23.06;58.78
11223;BME280;5668;52.012;8.724;2022-09-09T11:02:15;99519.53;;;23.07;58.59
11223;BME280;5668;52.012;8.724;2022-09-09T11:04:50;99510.53;;;23.15;58.46
11223;BME280;5668;52.012;8.724;2022-09-09T11:07:27;99518.66;;;23.20;57.91
11223;BME280;5668;52.012;8.724;2022-09-09T11:09:59;99511.31;;;23.29;58.29
11223;BME280;5668;52.012;8.724;2022-09-09T11:12:30;99514.94;;;23.34;57.45
11223;BME280;5668;52.012;8.724;2022-09-09T11:15:06;99512.69;;;23.31;55.68
11223;BME280;5668;52.012;8.724;2022-09-09T11:17:42;99511.66;;;23.39;56.60
11223;BME280;5668;52.012;8.724;2022-09-09T11:20:14;99516.16;;;23.51;57.18
11223;BME280;5668;52.012;8.724;2022-09-09T11:22:46;99512.66;;;23.58;57.13
11223;BME280;5668;52.012;8.724;2022-09-09T11:25:17;99514.44;;;23.64;56.38
11223;BME280;5668;52.012;8.724;2022-09-09T11:28:02;99514.00;;;23.73;56.70
11223;BME280;5668;52.012;8.724;2022-09-09T11:30:45;99509.88;;;23.77;56.36
11223;BME280;5668;52.012;8.724;2022-09-09T11:33:34;99517.22;;;23.82;55.28
11223;BME280;5668;52.012;8.724;2022-09-09T11:36:36;99508.25;;;23.76;55.70
11223;BME280;5668;52.012;8.724;2022-09-09T11:39:31;99511.72;;;23.77;56.12
11223;BME280;5668;52.012;8.724;2022-09-09T11:42:06;99528.22;;;23.85;56.71
11223;BME280;5668;52.012;8.724;2022-09-09T11:44:34;99511.03;;;23.95;56.28
11223;BME280;5668;52.012;8.724;2022-09-09T11:47:01;99501.78;;;24.04;56.97
11223;BME280;5668;52.012;8.724;2022-09-09T11:49:40;99501.28;;;24.13;56.80
11223;BME280;5668;52.012;8.724;2022-09-09T11:52:12;99511.69;;;24.21;56.36
11223;BME280;5668;52.012;8.724;2022-09-09T11:54:47;99512.91;;;24.25;55.00
11223;BME280;5668;52.012;8.724;2022-09-09T11:57:25;99516.16;;;24.27;54.11
11223;BME280;5668;52.012;8.724;2022-09-09T11:59:54;99515.97;;;24.22;53.48
11223;BME280;5668;52.012;8.724;2022-09-09T12:02:24;99513.94;;;24.18;52.46
11223;BME280;5668;52.012;8.724;2022-09-09T12:04:59;99514.00;;;24.11;52.42
11223;BME280;5668;52.012;8.724;2022-09-09T12:07:33;99515.44;;;24.07;51.18
11223;BME280;5668;52.012;8.724;2022-09-09T12:10:19;99511.00;;;24.01;52.05
11223;BME280;5668;52.012;8.724;2022-09-09T12:12:47;99507.06;;;24.10;52.75
11223;BME280;5668;52.012;8.724;2022-09-09T12:15:21;99508.47;;;24.13;52.94
11223;BME280;5668;52.012;8.724;2022-09-09T12:17:51;99515.19;;;24.15;53.31
11223;BME280;5668;52.012;8.724;2022-09-09T12:20:22;99513.94;;;24.18;52.96
11223;BME280;5668;52.012;8.724;2022-09-09T12:23:06;99515.16;;;24.22;52.59
11223;BME280;5668;52.012;8.724;2022-09-09T12:26:05;99518.22;;;24.25;53.64
11223;BME280;5668;52.012;8.724;2022-09-09T12:28:55;99512.69;;;24.27;54.22
11223;BME280;5668;52.012;8.724;2022-09-09T12:31:29;99513.31;;;24.22;50.98
11223;BME280;5668;52.012;8.724;2022-09-09T12:34:13;99507.59;;;24.25;52.30
11223;BME280;5668;52.012;8.724;2022-09-09T12:36:44;99505.31;;;24.29;52.55
11223;BME280;5668;52.012;8.724;2022-09-09T12:39:19;99501.00;;;24.35;51.59
11223;BME280;5668;52.012;8.724;2022-09-09T12:41:53;99504.41;;;24.42;50.03
11223;BME280;5668;52.012;8.724;2022-09-09T12:44:23;99501.25;;;24.51;50.44
11223;BME280;5668;52.012;8.724;2022-09-09T12:46:51;99491.16;;;24.60;49.49
11223;BME280;5668;52.012;8.724;2022-09-09T12:49:29;99490.28;;;24.66;49.91
11223;BME280;5668;52.012;8.724;2022-09-09T12:52:02;99500.22;;;24.77;49.81
11223;BME280;5668;52.012;8.724;2022-09-09T12:54:32;99491.81;;;24.80;47.37
11223;BME280;5668;52.012;8.724;2022-09-09T12:57:00;99490.31;;;24.84;47.36
11223;BME280;5668;52.012;8.724;2022-09-09T12:59:36;99492.13;;;24.90;47.45
11223;BME280;5668;52.012;8.724;2022-09-09T13:02:19;99491.84;;;24.98;48.23
11223;BME280;5668;52.012;8.724;2022-09-09T13:04:46;99487.13;;;25.00;47.50
11223;BME280;5668;52.012;8.724;2022-09-09T13:07:18;99488.16;;;24.99;46.74
11223;BME280;5668;52.012;8.724;2022-09-09T13:09:47;99479.56;;;24.97;47.20
11223;BME280;5668;52.012;8.724;2022-09-09T13:12:17;99477.53;;;24.99;47.25
11223;BME280;5668;52.012;8.724;2022-09-09T13:14:46;99478.75;;;24.97;48.25
11223;BME280;5668;52.012;8.724;2022-09-09T13:17:20;99471.59;;;24.97;47.73
11223;BME280;5668;52.012;8.724;2022-09-09T13:19:48;99469.75;;;24.98;48.11
11223;BME280;5668;52.012;8.724;2022-09-09T13:22:26;99475.28;;;24.96;48.09
11223;BME280;5668;52.012;8.724;2022-09-09T13:25:13;99474.28;;;25.16;46.36
11223;BME280;5668;52.012;8.724;2022-09-09T13:27:53;99476.78;;;24.92;47.43
11223;BME280;5668;52.012;8.724;2022-09-09T13:30:23;99469.47;;;24.81;47.47
11223;BME280;5668;52.012;8.724;2022-09-09T13:33:01;99473.69;;;24.71;47.75
11223;BME280;5668;52.012;8.724;2022-09-09T13:35:29;99480.53;;;24.60;48.15
11223;BME280;5668;52.012;8.724;2022-09-09T13:37:58;99468.56;;;24.51;48.78
11223;BME280;5668;52.012;8.724;2022-09-09T13:40:26;99477.63;;;24.43;49.50